createdAt,value
2023-05-20T00:02:47.507Z,101872.78
2023-05-20T00:05:50.031Z,101871.59
2023-05-20T00:08:52.568Z,101877.22
2023-05-20T00:11:54.991Z,101869.31
2023-05-20T00:14:57.453Z,101869.78
2023-05-20T00:18:01.537Z,101870.53
2023-05-20T00:21:03.974Z,101862.16
2023-05-20T00:24:06.645Z,101877.00
2023-05-20T00:27:09.191Z,101857.88
2023-05-20T00:30:12.333Z,101858.38
2023-05-20T00:33:14.770Z,101862.53
2023-05-20T00:36:17.160Z,101854.78
2023-05-20T00:39:19.581Z,101850.66
2023-05-20T00:42:22.801Z,101856.94
2023-05-20T00:45:26.238Z,101850.41
2023-05-20T00:48:40.542Z,101855.56
2023-05-20T00:51:43.051Z,101846.59
2023-05-20T00:54:46.030Z,101848.75
2023-05-20T00:57:49.568Z,101855.38
2023-05-20T01:00:52.524Z,101846.19
2023-05-20T01:03:54.996Z,101825.84
2023-05-20T01:06:58.798Z,101852.75
2023-05-20T01:10:01.590Z,101845.38
2023-05-20T01:13:06.614Z,101855.72
2023-05-20T01:16:09.583Z,101843.53
2023-05-20T01:19:44.569Z,101856.06
2023-05-20T01:22:50.590Z,101856.22
2023-05-20T01:25:52.905Z,101851.91
2023-05-20T01:28:58.172Z,101839.00
2023-05-20T01:32:01.772Z,101856.28
2023-05-20T01:35:05.472Z,101855.56
2023-05-20T01:38:08.597Z,101857.63
2023-05-20T01:41:11.878Z,101846.50
2023-05-20T01:44:14.250Z,101858.53
2023-05-20T01:47:17.144Z,101848.50
2023-05-20T01:50:20.117Z,101849.41
2023-05-20T01:53:22.810Z,101853.31
2023-05-20T01:56:25.198Z,101856.69
2023-05-20T01:59:27.628Z,101850.81
2023-05-20T02:02:30.135Z,101852.56
2023-05-20T02:05:32.859Z,101850.66
2023-05-20T02:08:35.545Z,101846.28
2023-05-20T02:11:38.008Z,101837.84
2023-05-20T02:14:40.387Z,101844.38
2023-05-20T02:17:43.888Z,101840.38
2023-05-20T02:20:46.821Z,101845.63
2023-05-20T02:23:50.028Z,101828.06
2023-05-20T02:26:53.905Z,101838.16
2023-05-20T02:29:56.373Z,101836.47
2023-05-20T02:32:59.212Z,101833.00
2023-05-20T02:36:02.267Z,101835.72
2023-05-20T02:39:04.739Z,101841.94
2023-05-20T02:42:07.269Z,101837.75
2023-05-20T02:45:09.984Z,101838.41
2023-05-20T02:48:12.380Z,101835.84
2023-05-20T02:51:14.807Z,101843.94
2023-05-20T02:54:17.278Z,101839.81
2023-05-20T02:57:19.827Z,101848.16
2023-05-20T03:00:23.816Z,101834.03
2023-05-20T03:03:30.096Z,101838.00
2023-05-20T03:06:32.461Z,101836.47
2023-05-20T03:09:34.888Z,101839.56
2023-05-20T03:12:37.338Z,101829.88
2023-05-20T03:15:40.095Z,101839.81
2023-05-20T03:18:43.127Z,101836.31
2023-05-20T03:21:46.753Z,101837.50
2023-05-20T03:24:49.321Z,101841.22
2023-05-20T03:27:51.720Z,101839.81
2023-05-20T03:30:54.299Z,101846.06
2023-05-20T03:33:57.262Z,101848.53
2023-05-20T03:37:00.454Z,101842.25
2023-05-20T03:40:06.370Z,101850.28
2023-05-20T03:43:10.718Z,101838.56
2023-05-20T03:46:13.371Z,101844.56
2023-05-20T03:49:16.415Z,101842.72
2023-05-20T03:52:19.065Z,101854.31
2023-05-20T03:55:21.602Z,101825.91
2023-05-20T03:58:24.193Z,101841.63
2023-05-20T04:01:26.547Z,101843.78
2023-05-20T04:04:29.399Z,101844.44
2023-05-20T04:07:31.798Z,101846.13
2023-05-20T04:10:34.437Z,101848.13
2023-05-20T04:13:36.988Z,101859.31
2023-05-20T04:16:39.844Z,101856.94
2023-05-20T04:19:42.780Z,101848.97
2023-05-20T04:22:46.265Z,101837.69
2023-05-20T04:25:49.097Z,101860.34
2023-05-20T04:28:51.782Z,101855.38
2023-05-20T04:31:54.255Z,101838.91
2023-05-20T04:34:57.664Z,101858.09
2023-05-20T04:38:01.149Z,101859.84
2023-05-20T04:41:04.882Z,101863.13
2023-05-20T04:44:07.470Z,101854.88
2023-05-20T04:47:09.899Z,101860.66
2023-05-20T04:50:14.975Z,101856.66
2023-05-20T04:53:17.669Z,101861.66
2023-05-20T04:56:20.063Z,101861.97
2023-05-20T04:59:22.648Z,101851.81
2023-05-20T05:02:26.279Z,101854.75
2023-05-20T05:05:29.680Z,101859.56
2023-05-20T05:08:32.030Z,101853.16
2023-05-20T05:11:35.001Z,101842.75
2023-05-20T05:14:38.084Z,101838.78
2023-05-20T05:17:40.550Z,101844.81
2023-05-20T05:20:43.258Z,101851.19
2023-05-20T05:23:46.120Z,101848.19
2023-05-20T05:26:48.671Z,101847.28
2023-05-20T05:29:51.211Z,101847.03
2023-05-20T05:32:54.949Z,101830.97
2023-05-20T05:35:59.493Z,101833.44
2023-05-20T05:39:02.278Z,101836.94
2023-05-20T05:42:05.670Z,101845.34
2023-05-20T05:45:10.141Z,101844.81
2023-05-20T05:48:13.240Z,101844.50
2023-05-20T05:51:16.035Z,101851.09
2023-05-20T05:54:20.563Z,101845.16
2023-05-20T05:57:23.551Z,101852.28
2023-05-20T06:00:26.198Z,101838.13
2023-05-20T06:03:31.165Z,101844.75
2023-05-20T06:06:34.384Z,101843.91
2023-05-20T06:09:36.846Z,101832.72
2023-05-20T06:12:39.225Z,101843.19
2023-05-20T06:15:41.778Z,101834.69
2023-05-20T06:18:44.498Z,101838.59
2023-05-20T06:21:48.403Z,101842.75
2023-05-20T06:24:51.046Z,101837.28
2023-05-20T06:27:53.898Z,101845.50
2023-05-20T06:30:58.958Z,101842.47
2023-05-20T06:34:03.060Z,101836.44
2023-05-20T06:37:06.078Z,101843.63
2023-05-20T06:40:10.021Z,101838.13
2023-05-20T06:43:13.063Z,101845.25
2023-05-20T06:46:41.620Z,101834.81
2023-05-20T06:49:48.760Z,101847.13
2023-05-20T06:52:51.839Z,101842.69
2023-05-20T06:55:58.626Z,101840.22
2023-05-20T06:59:01.736Z,101845.41
2023-05-20T07:02:06.090Z,101840.91
2023-05-20T07:05:09.044Z,101827.59
2023-05-20T07:08:11.803Z,101834.31
2023-05-20T07:11:14.497Z,101835.22
2023-05-20T07:14:17.109Z,101837.38
2023-05-20T07:17:19.730Z,101838.41
2023-05-20T07:20:22.421Z,101835.28
2023-05-20T07:23:25.314Z,101831.72
2023-05-20T07:26:33.611Z,101822.09
2023-05-20T07:29:38.923Z,101826.09
2023-05-20T07:32:42.496Z,101815.31
2023-05-20T07:35:45.776Z,101820.44
2023-05-20T07:39:00.607Z,101810.91
2023-05-20T07:42:08.941Z,101803.69
2023-05-20T07:45:15.677Z,101809.53
2023-05-20T07:48:18.195Z,101804.03
2023-05-20T07:51:20.749Z,101806.88
2023-05-20T07:54:24.094Z,101800.00
2023-05-20T07:57:28.370Z,101815.84
2023-05-20T08:00:30.946Z,101806.69
2023-05-20T08:03:39.022Z,101801.03
2023-05-20T08:06:46.897Z,101806.66
2023-05-20T08:09:57.406Z,101809.59
2023-05-20T08:13:00.082Z,101809.16
2023-05-20T08:16:06.144Z,101806.19
2023-05-20T08:19:09.040Z,101796.50
2023-05-20T08:22:13.123Z,101796.38
2023-05-20T08:25:16.667Z,101799.66
2023-05-20T08:28:20.289Z,101800.53
2023-05-20T08:31:22.819Z,101787.94
2023-05-20T08:34:26.331Z,101742.59
2023-05-20T08:37:29.623Z,101777.19
2023-05-20T08:40:32.173Z,101790.50
2023-05-20T08:43:34.908Z,101788.25
2023-05-20T08:46:39.190Z,101800.88
2023-05-20T08:49:42.253Z,101796.28
2023-05-20T08:52:48.347Z,101795.25
2023-05-20T08:56:00.969Z,101794.28
2023-05-20T08:59:05.551Z,101786.25
2023-05-20T09:02:10.088Z,101788.69
2023-05-20T09:05:12.720Z,101787.31
2023-05-20T09:08:15.467Z,101784.50
2023-05-20T09:11:18.393Z,101788.78
2023-05-20T09:14:21.463Z,101778.88
2023-05-20T09:17:24.721Z,101779.19
2023-05-20T09:20:29.699Z,101782.03
2023-05-20T09:23:32.453Z,101779.38
2023-05-20T09:26:36.578Z,101781.16
2023-05-20T09:29:39.569Z,101779.19
2023-05-20T09:32:42.184Z,101768.00
2023-05-20T09:35:45.482Z,101771.88
2023-05-20T09:38:49.715Z,101758.16
2023-05-20T09:42:04.444Z,101768.34
2023-05-20T09:45:09.764Z,101774.38
2023-05-20T09:48:13.456Z,101770.19
2023-05-20T09:51:17.709Z,101767.72
2023-05-20T09:54:20.877Z,101769.38
2023-05-20T09:57:23.598Z,101764.63
2023-05-20T10:00:26.829Z,101763.50
2023-05-20T10:03:30.319Z,101761.97
2023-05-20T10:06:44.573Z,101770.09
2023-05-20T10:10:04.594Z,101766.91
2023-05-20T10:13:22.513Z,101763.56
2023-05-20T10:16:55.795Z,101740.88
2023-05-20T10:20:00.415Z,101750.69
2023-05-20T10:23:05.464Z,101747.38
2023-05-20T10:26:08.365Z,101745.09
2023-05-20T10:29:20.916Z,101750.63
2023-05-20T10:32:35.116Z,101750.75
2023-05-20T10:35:48.584Z,101750.66
2023-05-20T10:38:58.019Z,101748.91
2023-05-20T10:42:11.346Z,101734.59
2023-05-20T10:45:29.627Z,101741.53
2023-05-20T10:48:34.524Z,101736.28
2023-05-20T10:51:39.040Z,101736.00
2023-05-20T10:54:54.814Z,101732.06
2023-05-20T10:57:59.182Z,101732.47
2023-05-20T11:01:03.904Z,101729.81
2023-05-20T11:04:07.394Z,101726.22
2023-05-20T11:07:11.358Z,101727.50
2023-05-20T11:10:15.169Z,101721.47
2023-05-20T11:13:19.710Z,101713.72
2023-05-20T11:16:23.453Z,101707.34
2023-05-20T11:19:28.113Z,101687.25
2023-05-20T11:22:32.481Z,101701.97
2023-05-20T11:25:37.376Z,101692.34
2023-05-20T11:28:41.629Z,101684.63
2023-05-20T11:31:45.487Z,101692.38
2023-05-20T11:34:54.074Z,101680.97
2023-05-20T11:38:11.185Z,101688.28
2023-05-20T11:41:15.079Z,101684.03
2023-05-20T11:44:21.325Z,101685.81
2023-05-20T11:47:30.492Z,101679.25
2023-05-20T11:50:39.913Z,101681.03
2023-05-20T11:53:42.833Z,101689.19
2023-05-20T11:56:46.255Z,101678.47
2023-05-20T11:59:50.185Z,101687.81
2023-05-20T12:02:53.367Z,101685.66
2023-05-20T12:05:55.907Z,101688.56
2023-05-20T12:09:06.944Z,101676.25
2023-05-20T12:12:11.493Z,101673.72
2023-05-20T12:15:14.400Z,101679.00
2023-05-20T12:18:16.966Z,101674.53
2023-05-20T12:21:20.103Z,101678.31
2023-05-20T12:24:22.785Z,101679.78
2023-05-20T12:27:25.439Z,101678.31
2023-05-20T12:30:28.336Z,101674.66
2023-05-20T12:33:31.553Z,101663.28
2023-05-20T12:36:34.646Z,101674.22
2023-05-20T12:39:37.344Z,101673.91
2023-05-20T12:42:40.905Z,101668.44
2023-05-20T12:45:43.475Z,101665.97
2023-05-20T12:48:46.095Z,101662.19
2023-05-20T12:51:48.639Z,101661.16
2023-05-20T12:54:51.784Z,101662.25
2023-05-20T12:57:56.633Z,101660.41
2023-05-20T13:00:59.247Z,101652.50
2023-05-20T13:04:02.565Z,101643.25
2023-05-20T13:07:05.392Z,101640.13
2023-05-20T13:10:11.677Z,101635.31
2023-05-20T13:13:22.237Z,101623.16
2023-05-20T13:16:25.649Z,101613.88
2023-05-20T13:19:29.572Z,101619.97
2023-05-20T13:22:33.280Z,101614.81
2023-05-20T13:25:37.258Z,101612.72
2023-05-20T13:28:39.939Z,101602.16
2023-05-20T13:31:43.050Z,101597.50
2023-05-20T13:34:45.921Z,101592.69
2023-05-20T13:37:49.240Z,101597.50
2023-05-20T13:40:52.087Z,101585.06
2023-05-20T13:43:56.867Z,101586.28
2023-05-20T13:47:01.300Z,101580.59
2023-05-20T13:50:04.827Z,101575.84
2023-05-20T13:53:13.922Z,101578.28
2023-05-20T13:56:17.739Z,101578.53
2023-05-20T13:59:21.576Z,101574.22
2023-05-20T14:02:25.210Z,101563.38
2023-05-20T14:05:28.212Z,101575.94
2023-05-20T14:08:31.326Z,101575.59
2023-05-20T14:11:33.962Z,101565.44
2023-05-20T14:14:36.693Z,101556.06
2023-05-20T14:17:40.599Z,101570.13
2023-05-20T14:20:43.768Z,101554.06
2023-05-20T14:23:46.800Z,101561.00
2023-05-20T14:26:50.014Z,101549.00
2023-05-20T14:29:52.847Z,101550.84
2023-05-20T14:32:55.591Z,101556.28
2023-05-20T14:35:58.217Z,101545.59
2023-05-20T14:39:00.834Z,101550.03
2023-05-20T14:42:03.670Z,101543.34
2023-05-20T14:45:06.748Z,101544.47
2023-05-20T14:48:09.903Z,101535.41
2023-05-20T14:51:13.379Z,101532.78
2023-05-20T14:54:16.438Z,101531.47
2023-05-20T14:57:19.550Z,101540.25
2023-05-20T15:00:22.640Z,101530.66
2023-05-20T15:03:27.698Z,101545.22
2023-05-20T15:06:32.925Z,101528.50
2023-05-20T15:09:36.041Z,101527.22
2023-05-20T15:12:40.516Z,101519.97
2023-05-20T15:15:46.166Z,101508.91
2023-05-20T15:18:50.111Z,101520.06
2023-05-20T15:21:53.639Z,101502.38
2023-05-20T15:24:56.383Z,101506.44
2023-05-20T15:27:58.787Z,101505.50
2023-05-20T15:31:01.205Z,101497.78
2023-05-20T15:34:03.709Z,101492.72
2023-05-20T15:37:06.370Z,101490.94
2023-05-20T15:40:09.498Z,101487.44
2023-05-20T15:43:11.835Z,101481.13
2023-05-20T15:46:14.398Z,101484.19
2023-05-20T15:49:16.961Z,101486.69
2023-05-20T15:52:19.522Z,101481.16
2023-05-20T15:55:23.541Z,101483.13
2023-05-20T15:58:26.054Z,101481.28
2023-05-20T16:01:28.751Z,101483.22
2023-05-20T16:04:32.648Z,101490.03
2023-05-20T16:07:35.168Z,101486.56
2023-05-20T16:10:37.635Z,101486.56
2023-05-20T16:13:40.193Z,101483.69
2023-05-20T16:16:42.750Z,101473.50
2023-05-20T16:19:46.410Z,101481.25
2023-05-20T16:22:49.021Z,101473.59
2023-05-20T16:25:51.559Z,101475.50
2023-05-20T16:28:54.353Z,101471.84
2023-05-20T16:31:56.895Z,101467.72
2023-05-20T16:34:59.325Z,101468.38
2023-05-20T16:38:01.768Z,101464.59
2023-05-20T16:41:04.413Z,101456.84
2023-05-20T16:44:06.803Z,101463.06
2023-05-20T16:47:09.554Z,101462.06
2023-05-20T16:50:12.133Z,101460.34
2023-05-20T16:53:16.332Z,101473.69
2023-05-20T16:56:19.364Z,101473.69
2023-05-20T16:59:21.829Z,101471.13
2023-05-20T17:02:24.379Z,101476.38
2023-05-20T17:05:26.886Z,101474.16
2023-05-20T17:08:30.007Z,101475.41
2023-05-20T17:11:32.595Z,101472.84
2023-05-20T17:14:35.235Z,101472.25
2023-05-20T17:17:38.024Z,101481.13
2023-05-20T17:20:41.503Z,101473.06
2023-05-20T17:23:44.914Z,101478.38
2023-05-20T17:26:47.810Z,101476.75
2023-05-20T17:29:50.756Z,101485.72
2023-05-20T17:32:54.212Z,101476.22
2023-05-20T17:35:57.052Z,101479.84
2023-05-20T17:38:59.718Z,101441.25
2023-05-20T17:42:03.246Z,101473.84
2023-05-20T17:45:06.897Z,101471.72
2023-05-20T17:48:11.500Z,101473.31
2023-05-20T17:51:15.765Z,101485.97
2023-05-20T17:54:18.612Z,101479.59
2023-05-20T17:57:22.014Z,101476.34
2023-05-20T18:00:27.008Z,101474.06
2023-05-20T18:03:30.780Z,101478.94
2023-05-20T18:06:34.934Z,101481.81
2023-05-20T18:09:37.705Z,101482.69
2023-05-20T18:12:40.319Z,101476.94
2023-05-20T18:15:42.972Z,101480.13
2023-05-20T18:18:45.964Z,101480.81
2023-05-20T18:21:48.756Z,101480.38
2023-05-20T18:24:51.485Z,101477.06
2023-05-20T18:27:54.725Z,101482.84
2023-05-20T18:30:57.972Z,101470.91
2023-05-20T18:34:02.410Z,101475.94
2023-05-20T18:37:07.208Z,101477.47
2023-05-20T18:40:11.488Z,101477.84
2023-05-20T18:43:15.050Z,101467.63
2023-05-20T18:46:18.951Z,101482.56
2023-05-20T18:49:22.899Z,101486.38
2023-05-20T18:52:26.808Z,101470.09
2023-05-20T18:55:29.793Z,101471.91
2023-05-20T18:58:32.527Z,101474.81
2023-05-20T19:01:37.068Z,101480.94
2023-05-20T19:04:40.045Z,101479.84
2023-05-20T19:07:42.759Z,101479.00
2023-05-20T19:10:45.445Z,101480.72
2023-05-20T19:13:49.332Z,101473.22
2023-05-20T19:16:52.990Z,101476.94
2023-05-20T19:19:56.741Z,101474.69
2023-05-20T19:22:59.090Z,101477.50
2023-05-20T19:26:01.456Z,101478.31
2023-05-20T19:29:03.850Z,101484.72
2023-05-20T19:32:06.657Z,101481.75
2023-05-20T19:35:09.477Z,101486.19
2023-05-20T19:38:12.602Z,101474.13
2023-05-20T19:41:15.046Z,101481.22
2023-05-20T19:44:17.511Z,101480.66
2023-05-20T19:47:20.164Z,101483.41
2023-05-20T19:50:22.725Z,101474.44
2023-05-20T19:53:25.191Z,101477.38
2023-05-20T19:56:27.653Z,101476.41
2023-05-20T19:59:30.440Z,101478.50
2023-05-20T20:02:33.491Z,101485.75
2023-05-20T20:05:37.546Z,101483.91
2023-05-20T20:08:40.315Z,101471.69
2023-05-20T20:11:43.451Z,101482.31
2023-05-20T20:14:46.274Z,101485.56
2023-05-20T20:17:52.344Z,101473.78
2023-05-20T20:20:54.972Z,101459.22
2023-05-20T20:23:57.326Z,101476.22
2023-05-20T20:26:59.808Z,101469.91
2023-05-20T20:30:02.248Z,101486.41
2023-05-20T20:33:07.142Z,101481.94
2023-05-20T20:36:09.880Z,101485.25
2023-05-20T20:39:19.022Z,101493.34
2023-05-20T20:42:24.479Z,101483.84
2023-05-20T20:45:26.915Z,101489.38
2023-05-20T20:48:29.367Z,101485.75
2023-05-20T20:51:31.941Z,101490.34
2023-05-20T20:54:34.338Z,101486.16
2023-05-20T20:57:37.143Z,101478.75
2023-05-20T21:00:40.328Z,101465.94
2023-05-20T21:03:44.813Z,101482.78
2023-05-20T21:06:47.235Z,101476.84
2023-05-20T21:09:55.032Z,101483.25
2023-05-20T21:13:00.730Z,101484.72
2023-05-20T21:16:03.070Z,101481.22
2023-05-20T21:19:06.244Z,101483.16
2023-05-20T21:22:08.646Z,101482.94
2023-05-20T21:25:11.348Z,101481.28
2023-05-20T21:28:13.943Z,101481.19
2023-05-20T21:31:16.424Z,101483.63
2023-05-20T21:34:18.872Z,101479.09
2023-05-20T21:37:21.328Z,101477.97
2023-05-20T21:40:24.048Z,101469.78
2023-05-20T21:43:26.521Z,101475.50
2023-05-20T21:46:28.928Z,101485.03
2023-05-20T21:49:31.447Z,101474.84
2023-05-20T21:52:33.801Z,101483.09
2023-05-20T21:55:36.605Z,101483.72
2023-05-20T21:58:41.373Z,101488.97
2023-05-20T22:01:44.014Z,101480.00
2023-05-20T22:04:46.448Z,101476.41
2023-05-20T22:07:51.360Z,101476.09
2023-05-20T22:10:55.009Z,101479.66
2023-05-20T22:13:57.540Z,101448.72
2023-05-20T22:16:59.944Z,101484.63
2023-05-20T22:20:07.084Z,101479.38
2023-05-20T22:23:09.532Z,101479.63
2023-05-20T22:26:11.944Z,101490.06
2023-05-20T22:29:14.312Z,101487.59
2023-05-20T22:32:16.685Z,101493.88
2023-05-20T22:35:19.197Z,101495.00
2023-05-20T22:38:22.228Z,101493.06
2023-05-20T22:41:24.613Z,101495.03
2023-05-20T22:44:26.929Z,101485.97
2023-05-20T22:47:29.276Z,101491.75
2023-05-20T22:50:35.427Z,101488.22
2023-05-20T22:53:37.904Z,101493.69
2023-05-20T22:56:40.361Z,101493.34
2023-05-20T22:59:43.066Z,101491.41
2023-05-20T23:02:49.945Z,101477.72
2023-05-20T23:05:52.704Z,101493.31
2023-05-20T23:08:55.381Z,101489.72
2023-05-20T23:11:57.769Z,101485.09
2023-05-20T23:15:00.251Z,101491.41
2023-05-20T23:18:02.680Z,101485.66
2023-05-20T23:21:05.310Z,101481.88
2023-05-20T23:24:07.800Z,101492.03
2023-05-20T23:27:10.225Z,101481.59
2023-05-20T23:30:12.944Z,101493.38
2023-05-20T23:33:17.708Z,101480.75
2023-05-20T23:36:21.884Z,101486.84
2023-05-20T23:39:24.413Z,101473.69
2023-05-20T23:42:26.972Z,101479.41
2023-05-20T23:45:29.303Z,101480.75
2023-05-20T23:48:31.624Z,101477.25
2023-05-20T23:51:35.636Z,101476.44
2023-05-20T23:54:37.955Z,101490.41
2023-05-20T23:57:41.602Z,101477.78
